sensor_id;sensor_type;location;lat;lon;timestamp;P1;durP1;ratioP1;P2;durP2;ratioP2
54929;SDS011;40833;53.238;6.576;2022-12-18T00:02:13;116.63;;;38.10;;
54929;SDS011;40833;53.238;6.576;2022-12-18T00:04:38;101.90;;;35.37;;
54929;SDS011;40833;53.238;6.576;2022-12-18T00:07:04;114.37;;;36.60;;
54929;SDS011;40833;53.238;6.576;2022-12-18T00:09:30;110.20;;;35.43;;
54929;SDS011;40833;53.238;6.576;2022-12-18T00:11:55;118.53;;;37.37;;
54929;SDS011;40833;53.238;6.576;2022-12-18T00:14:21;113.57;;;37.07;;
54929;SDS011;40833;53.238;6.576;2022-12-18T00:16:47;116.10;;;36.90;;
54929;SDS011;40833;53.238;6.576;2022-12-18T00:19:13;108.07;;;36.13;;
54929;SDS011;40833;53.238;6.576;2022-12-18T00:21:40;105.77;;;35.57;;
54929;SDS011;40833;53.238;6.576;2022-12-18T00:24:06;114.60;;;38.63;;
54929;SDS011;40833;53.238;6.576;2022-12-18T00:26:33;124.93;;;37.87;;
54929;SDS011;40833;53.238;6.576;2022-12-18T00:29:01;105.10;;;32.70;;
54929;SDS011;40833;53.238;6.576;2022-12-18T00:31:28;114.57;;;37.07;;
54929;SDS011;40833;53.238;6.576;2022-12-18T00:33:55;108.63;;;36.03;;
54929;SDS011;40833;53.238;6.576;2022-12-18T00:36:25;123.27;;;37.20;;
54929;SDS011;40833;53.238;6.576;2022-12-18T00:38:53;113.88;;;37.40;;
54929;SDS011;40833;53.238;6.576;2022-12-18T00:41:20;117.37;;;35.43;;
54929;SDS011;40833;53.238;6.576;2022-12-18T00:44:05;101.43;;;33.47;;
54929;SDS011;40833;53.238;6.576;2022-12-18T00:46:32;112.33;;;36.53;;
54929;SDS011;40833;53.238;6.576;2022-12-18T00:48:58;95.00;;;33.13;;
54929;SDS011;40833;53.238;6.576;2022-12-18T00:51:24;91.63;;;33.03;;
54929;SDS011;40833;53.238;6.576;2022-12-18T00:53:51;101.93;;;34.40;;
54929;SDS011;40833;53.238;6.576;2022-12-18T00:56:18;107.30;;;34.17;;
54929;SDS011;40833;53.238;6.576;2022-12-18T00:58:43;109.40;;;35.63;;
54929;SDS011;40833;53.238;6.576;2022-12-18T01:01:09;107.23;;;33.97;;
54929;SDS011;40833;53.238;6.576;2022-12-18T01:03:34;102.70;;;33.33;;
54929;SDS011;40833;53.238;6.576;2022-12-18T01:06:05;94.57;;;32.87;;
54929;SDS011;40833;53.238;6.576;2022-12-18T01:08:32;102.05;;;32.28;;
54929;SDS011;40833;53.238;6.576;2022-12-18T01:10:58;102.50;;;34.47;;
54929;SDS011;40833;53.238;6.576;2022-12-18T01:13:23;107.33;;;32.47;;
54929;SDS011;40833;53.238;6.576;2022-12-18T01:15:49;98.27;;;32.93;;
54929;SDS011;40833;53.238;6.576;2022-12-18T01:18:16;99.50;;;32.07;;
54929;SDS011;40833;53.238;6.576;2022-12-18T01:20:41;104.37;;;35.40;;
54929;SDS011;40833;53.238;6.576;2022-12-18T01:23:07;105.83;;;33.93;;
54929;SDS011;40833;53.238;6.576;2022-12-18T01:25:33;100.30;;;34.33;;
54929;SDS011;40833;53.238;6.576;2022-12-18T01:28:01;105.30;;;37.03;;
54929;SDS011;40833;53.238;6.576;2022-12-18T01:30:27;113.73;;;34.40;;
54929;SDS011;40833;53.238;6.576;2022-12-18T01:32:53;102.33;;;34.17;;
54929;SDS011;40833;53.238;6.576;2022-12-18T01:35:19;104.70;;;33.70;;
54929;SDS011;40833;53.238;6.576;2022-12-18T01:37:44;107.13;;;33.57;;
54929;SDS011;40833;53.238;6.576;2022-12-18T01:40:10;109.30;;;34.60;;
54929;SDS011;40833;53.238;6.576;2022-12-18T01:42:36;107.37;;;36.00;;
54929;SDS011;40833;53.238;6.576;2022-12-18T01:53:15;112.82;;;35.60;;
54929;SDS011;40833;53.238;6.576;2022-12-18T01:55:48;98.87;;;33.37;;
54929;SDS011;40833;53.238;6.576;2022-12-18T01:58:19;98.10;;;31.50;;
54929;SDS011;40833;53.238;6.576;2022-12-18T02:00:57;108.03;;;33.53;;
54929;SDS011;40833;53.238;6.576;2022-12-18T02:03:23;114.60;;;33.87;;
54929;SDS011;40833;53.238;6.576;2022-12-18T02:13:32;101.40;;;32.83;;
54929;SDS011;40833;53.238;6.576;2022-12-18T02:16:26;95.40;;;31.20;;
54929;SDS011;40833;53.238;6.576;2022-12-18T02:19:05;95.17;;;31.70;;
54929;SDS011;40833;53.238;6.576;2022-12-18T02:25:19;94.37;;;30.87;;
54929;SDS011;40833;53.238;6.576;2022-12-18T02:27:32;100.53;;;34.33;;
54929;SDS011;40833;53.238;6.576;2022-12-18T02:30:00;103.87;;;32.87;;
54929;SDS011;40833;53.238;6.576;2022-12-18T02:32:34;116.73;;;35.27;;
54929;SDS011;40833;53.238;6.576;2022-12-18T02:35:05;115.97;;;34.20;;
54929;SDS011;40833;53.238;6.576;2022-12-18T02:37:33;117.27;;;36.77;;
54929;SDS011;40833;53.238;6.576;2022-12-18T02:40:00;105.23;;;34.43;;
54929;SDS011;40833;53.238;6.576;2022-12-18T02:42:28;116.20;;;35.63;;
54929;SDS011;40833;53.238;6.576;2022-12-18T02:44:54;117.37;;;35.00;;
54929;SDS011;40833;53.238;6.576;2022-12-18T02:47:21;105.87;;;34.90;;
54929;SDS011;40833;53.238;6.576;2022-12-18T02:52:49;110.30;;;32.33;;
54929;SDS011;40833;53.238;6.576;2022-12-18T03:00:41;121.63;;;35.80;;
54929;SDS011;40833;53.238;6.576;2022-12-18T03:03:24;121.77;;;34.30;;
54929;SDS011;40833;53.238;6.576;2022-12-18T03:06:01;120.60;;;35.30;;
54929;SDS011;40833;53.238;6.576;2022-12-18T03:08:41;108.33;;;34.23;;
54929;SDS011;40833;53.238;6.576;2022-12-18T03:11:12;108.23;;;34.67;;
54929;SDS011;40833;53.238;6.576;2022-12-18T03:13:40;122.60;;;35.93;;
54929;SDS011;40833;53.238;6.576;2022-12-18T03:16:14;110.23;;;33.27;;
54929;SDS011;40833;53.238;6.576;2022-12-18T03:21:12;121.03;;;36.63;;
54929;SDS011;40833;53.238;6.576;2022-12-18T03:23:40;128.77;;;37.60;;
54929;SDS011;40833;53.238;6.576;2022-12-18T03:26:12;124.78;;;35.78;;
54929;SDS011;40833;53.238;6.576;2022-12-18T03:28:45;123.70;;;36.30;;
54929;SDS011;40833;53.238;6.576;2022-12-18T03:31:16;115.87;;;35.43;;
54929;SDS011;40833;53.238;6.576;2022-12-18T03:33:51;123.63;;;37.80;;
54929;SDS011;40833;53.238;6.576;2022-12-18T03:36:19;127.77;;;39.27;;
54929;SDS011;40833;53.238;6.576;2022-12-18T03:38:44;121.23;;;38.37;;
54929;SDS011;40833;53.238;6.576;2022-12-18T03:43:41;112.43;;;34.63;;
54929;SDS011;40833;53.238;6.576;2022-12-18T03:48:58;123.67;;;38.03;;
54929;SDS011;40833;53.238;6.576;2022-12-18T03:51:28;122.33;;;37.70;;
54929;SDS011;40833;53.238;6.576;2022-12-18T03:54:03;109.70;;;36.37;;
54929;SDS011;40833;53.238;6.576;2022-12-18T03:56:33;105.27;;;36.13;;
54929;SDS011;40833;53.238;6.576;2022-12-18T03:59:04;107.55;;;36.35;;
54929;SDS011;40833;53.238;6.576;2022-12-18T04:01:32;107.13;;;35.50;;
54929;SDS011;40833;53.238;6.576;2022-12-18T04:04:02;106.40;;;35.27;;
54929;SDS011;40833;53.238;6.576;2022-12-18T04:06:29;116.43;;;36.93;;
54929;SDS011;40833;53.238;6.576;2022-12-18T04:08:57;106.60;;;34.00;;
54929;SDS011;40833;53.238;6.576;2022-12-18T04:11:23;100.63;;;34.20;;
54929;SDS011;40833;53.238;6.576;2022-12-18T04:13:49;111.53;;;35.90;;
54929;SDS011;40833;53.238;6.576;2022-12-18T04:16:15;106.97;;;34.20;;
54929;SDS011;40833;53.238;6.576;2022-12-18T04:18:40;108.07;;;35.77;;
54929;SDS011;40833;53.238;6.576;2022-12-18T04:21:06;104.63;;;35.33;;
54929;SDS011;40833;53.238;6.576;2022-12-18T04:23:32;112.20;;;37.50;;
54929;SDS011;40833;53.238;6.576;2022-12-18T04:25:58;116.03;;;36.40;;
54929;SDS011;40833;53.238;6.576;2022-12-18T04:28:24;113.20;;;35.43;;
54929;SDS011;40833;53.238;6.576;2022-12-18T04:30:50;104.73;;;33.53;;
54929;SDS011;40833;53.238;6.576;2022-12-18T04:33:16;114.20;;;35.63;;
54929;SDS011;40833;53.238;6.576;2022-12-18T04:35:41;102.87;;;33.47;;
54929;SDS011;40833;53.238;6.576;2022-12-18T04:38:08;107.33;;;34.37;;
54929;SDS011;40833;53.238;6.576;2022-12-18T04:40:35;102.73;;;33.00;;
54929;SDS011;40833;53.238;6.576;2022-12-18T04:43:02;100.23;;;34.13;;
54929;SDS011;40833;53.238;6.576;2022-12-18T04:45:28;112.60;;;35.17;;
54929;SDS011;40833;53.238;6.576;2022-12-18T04:47:54;96.67;;;33.40;;
54929;SDS011;40833;53.238;6.576;2022-12-18T04:50:20;98.00;;;32.93;;
54929;SDS011;40833;53.238;6.576;2022-12-18T04:52:45;91.40;;;32.47;;
54929;SDS011;40833;53.238;6.576;2022-12-18T04:55:11;97.63;;;31.47;;
54929;SDS011;40833;53.238;6.576;2022-12-18T04:57:37;103.30;;;33.03;;
54929;SDS011;40833;53.238;6.576;2022-12-18T05:00:03;100.83;;;32.50;;
54929;SDS011;40833;53.238;6.576;2022-12-18T05:02:31;93.57;;;30.67;;
54929;SDS011;40833;53.238;6.576;2022-12-18T05:04:56;97.00;;;31.40;;
54929;SDS011;40833;53.238;6.576;2022-12-18T05:07:22;100.03;;;31.83;;
54929;SDS011;40833;53.238;6.576;2022-12-18T05:09:48;101.60;;;32.50;;
54929;SDS011;40833;53.238;6.576;2022-12-18T05:12:13;94.20;;;31.77;;
54929;SDS011;40833;53.238;6.576;2022-12-18T05:14:39;90.53;;;31.67;;
54929;SDS011;40833;53.238;6.576;2022-12-18T05:17:05;100.80;;;32.83;;
54929;SDS011;40833;53.238;6.576;2022-12-18T05:19:31;98.67;;;30.97;;
54929;SDS011;40833;53.238;6.576;2022-12-18T05:21:56;89.53;;;29.53;;
54929;SDS011;40833;53.238;6.576;2022-12-18T05:24:22;85.57;;;29.10;;
54929;SDS011;40833;53.238;6.576;2022-12-18T05:26:48;97.00;;;30.47;;
54929;SDS011;40833;53.238;6.576;2022-12-18T05:29:14;86.57;;;29.13;;
54929;SDS011;40833;53.238;6.576;2022-12-18T05:31:40;91.90;;;30.47;;
54929;SDS011;40833;53.238;6.576;2022-12-18T05:34:06;98.17;;;31.80;;
54929;SDS011;40833;53.238;6.576;2022-12-18T05:36:31;91.47;;;32.27;;
54929;SDS011;40833;53.238;6.576;2022-12-18T05:38:57;82.53;;;28.40;;
54929;SDS011;40833;53.238;6.576;2022-12-18T05:41:25;88.23;;;28.80;;
54929;SDS011;40833;53.238;6.576;2022-12-18T05:43:51;92.67;;;30.43;;
54929;SDS011;40833;53.238;6.576;2022-12-18T05:46:17;82.77;;;29.07;;
54929;SDS011;40833;53.238;6.576;2022-12-18T05:48:43;87.57;;;27.60;;
54929;SDS011;40833;53.238;6.576;2022-12-18T05:51:13;74.87;;;28.33;;
54929;SDS011;40833;53.238;6.576;2022-12-18T05:53:41;94.37;;;28.10;;
54929;SDS011;40833;53.238;6.576;2022-12-18T05:56:18;81.20;;;27.73;;
54929;SDS011;40833;53.238;6.576;2022-12-18T05:58:45;95.27;;;29.60;;
54929;SDS011;40833;53.238;6.576;2022-12-18T06:01:13;86.53;;;29.37;;
54929;SDS011;40833;53.238;6.576;2022-12-18T06:03:40;83.67;;;27.77;;
54929;SDS011;40833;53.238;6.576;2022-12-18T06:06:13;80.23;;;27.20;;
54929;SDS011;40833;53.238;6.576;2022-12-18T06:08:43;78.57;;;27.10;;
54929;SDS011;40833;53.238;6.576;2022-12-18T06:11:09;72.50;;;28.63;;
54929;SDS011;40833;53.238;6.576;2022-12-18T06:13:35;79.63;;;28.03;;
54929;SDS011;40833;53.238;6.576;2022-12-18T06:16:04;78.93;;;26.33;;
54929;SDS011;40833;53.238;6.576;2022-12-18T06:18:31;70.93;;;26.33;;
54929;SDS011;40833;53.238;6.576;2022-12-18T06:20:57;74.63;;;25.00;;
54929;SDS011;40833;53.238;6.576;2022-12-18T06:23:23;80.77;;;26.57;;
54929;SDS011;40833;53.238;6.576;2022-12-18T06:25:50;83.90;;;28.83;;
54929;SDS011;40833;53.238;6.576;2022-12-18T06:28:16;65.60;;;25.73;;
54929;SDS011;40833;53.238;6.576;2022-12-18T06:30:46;65.03;;;25.20;;
54929;SDS011;40833;53.238;6.576;2022-12-18T06:33:13;67.97;;;24.13;;
54929;SDS011;40833;53.238;6.576;2022-12-18T06:35:39;73.90;;;24.73;;
54929;SDS011;40833;53.238;6.576;2022-12-18T06:38:05;70.00;;;24.37;;
54929;SDS011;40833;53.238;6.576;2022-12-18T06:40:31;64.63;;;23.83;;
54929;SDS011;40833;53.238;6.576;2022-12-18T06:42:56;64.30;;;22.70;;
54929;SDS011;40833;53.238;6.576;2022-12-18T06:45:22;62.93;;;22.57;;
54929;SDS011;40833;53.238;6.576;2022-12-18T06:47:49;61.33;;;22.53;;
54929;SDS011;40833;53.238;6.576;2022-12-18T06:50:15;57.23;;;22.33;;
54929;SDS011;40833;53.238;6.576;2022-12-18T06:52:41;66.60;;;24.00;;
54929;SDS011;40833;53.238;6.576;2022-12-18T06:55:08;60.70;;;22.17;;
54929;SDS011;40833;53.238;6.576;2022-12-18T06:57:35;59.43;;;21.37;;
54929;SDS011;40833;53.238;6.576;2022-12-18T07:00:02;54.90;;;20.13;;
54929;SDS011;40833;53.238;6.576;2022-12-18T07:02:28;56.40;;;20.23;;
54929;SDS011;40833;53.238;6.576;2022-12-18T07:04:54;55.37;;;20.20;;
54929;SDS011;40833;53.238;6.576;2022-12-18T07:07:20;52.93;;;19.63;;
54929;SDS011;40833;53.238;6.576;2022-12-18T07:09:45;57.27;;;21.07;;
54929;SDS011;40833;53.238;6.576;2022-12-18T07:12:11;53.37;;;19.50;;
54929;SDS011;40833;53.238;6.576;2022-12-18T07:14:37;60.30;;;20.93;;
54929;SDS011;40833;53.238;6.576;2022-12-18T07:17:03;54.87;;;19.90;;
54929;SDS011;40833;53.238;6.576;2022-12-18T07:19:29;59.10;;;20.73;;
54929;SDS011;40833;53.238;6.576;2022-12-18T07:21:55;54.03;;;20.30;;
54929;SDS011;40833;53.238;6.576;2022-12-18T07:24:20;53.97;;;21.00;;
54929;SDS011;40833;53.238;6.576;2022-12-18T07:26:46;49.57;;;19.13;;
54929;SDS011;40833;53.238;6.576;2022-12-18T07:29:12;44.17;;;18.03;;
54929;SDS011;40833;53.238;6.576;2022-12-18T07:31:38;47.13;;;18.30;;
54929;SDS011;40833;53.238;6.576;2022-12-18T07:34:04;54.47;;;18.57;;
54929;SDS011;40833;53.238;6.576;2022-12-18T07:36:29;48.40;;;17.53;;
54929;SDS011;40833;53.238;6.576;2022-12-18T07:38:55;44.93;;;18.20;;
54929;SDS011;40833;53.238;6.576;2022-12-18T07:41:21;42.17;;;18.43;;
54929;SDS011;40833;53.238;6.576;2022-12-18T07:43:47;44.97;;;17.67;;
54929;SDS011;40833;53.238;6.576;2022-12-18T07:46:14;44.80;;;17.90;;
54929;SDS011;40833;53.238;6.576;2022-12-18T07:48:41;44.30;;;18.37;;
54929;SDS011;40833;53.238;6.576;2022-12-18T07:51:08;46.43;;;19.30;;
54929;SDS011;40833;53.238;6.576;2022-12-18T07:53:35;48.07;;;19.13;;
54929;SDS011;40833;53.238;6.576;2022-12-18T07:56:04;53.87;;;18.23;;
54929;SDS011;40833;53.238;6.576;2022-12-18T07:58:33;50.90;;;20.20;;
54929;SDS011;40833;53.238;6.576;2022-12-18T08:01:05;46.73;;;18.67;;
54929;SDS011;40833;53.238;6.576;2022-12-18T08:03:35;51.10;;;18.50;;
54929;SDS011;40833;53.238;6.576;2022-12-18T08:06:02;52.70;;;19.90;;
54929;SDS011;40833;53.238;6.576;2022-12-18T08:08:29;45.93;;;18.83;;
54929;SDS011;40833;53.238;6.576;2022-12-18T08:10:56;45.80;;;19.73;;
54929;SDS011;40833;53.238;6.576;2022-12-18T08:13:22;49.03;;;19.97;;
54929;SDS011;40833;53.238;6.576;2022-12-18T08:18:46;44.77;;;18.00;;
54929;SDS011;40833;53.238;6.576;2022-12-18T08:23:39;43.73;;;18.47;;
54929;SDS011;40833;53.238;6.576;2022-12-18T08:26:06;48.13;;;18.90;;
54929;SDS011;40833;53.238;6.576;2022-12-18T08:28:32;50.67;;;18.30;;
54929;SDS011;40833;53.238;6.576;2022-12-18T08:30:58;49.00;;;19.47;;
54929;SDS011;40833;53.238;6.576;2022-12-18T08:33:23;50.17;;;21.27;;
54929;SDS011;40833;53.238;6.576;2022-12-18T08:35:49;41.10;;;19.03;;
54929;SDS011;40833;53.238;6.576;2022-12-18T08:38:15;47.57;;;18.90;;
54929;SDS011;40833;53.238;6.576;2022-12-18T08:40:41;46.23;;;18.40;;
54929;SDS011;40833;53.238;6.576;2022-12-18T08:43:07;51.00;;;19.50;;
54929;SDS011;40833;53.238;6.576;2022-12-18T08:45:53;46.13;;;20.13;;
54929;SDS011;40833;53.238;6.576;2022-12-18T08:48:19;49.27;;;20.07;;
54929;SDS011;40833;53.238;6.576;2022-12-18T08:50:53;46.77;;;19.23;;
54929;SDS011;40833;53.238;6.576;2022-12-18T08:53:22;48.03;;;21.00;;
54929;SDS011;40833;53.238;6.576;2022-12-18T08:55:49;41.90;;;19.30;;
54929;SDS011;40833;53.238;6.576;2022-12-18T08:58:14;47.90;;;19.57;;
54929;SDS011;40833;53.238;6.576;2022-12-18T09:00:40;45.10;;;19.27;;
54929;SDS011;40833;53.238;6.576;2022-12-18T09:03:10;40.43;;;18.70;;
54929;SDS011;40833;53.238;6.576;2022-12-18T09:05:41;45.17;;;18.53;;
54929;SDS011;40833;53.238;6.576;2022-12-18T09:08:06;46.93;;;20.20;;
54929;SDS011;40833;53.238;6.576;2022-12-18T09:10:32;48.77;;;19.43;;
54929;SDS011;40833;53.238;6.576;2022-12-18T09:12:58;45.70;;;19.83;;
54929;SDS011;40833;53.238;6.576;2022-12-18T09:15:24;43.90;;;19.20;;
54929;SDS011;40833;53.238;6.576;2022-12-18T09:17:50;44.40;;;19.03;;
54929;SDS011;40833;53.238;6.576;2022-12-18T09:20:17;45.40;;;18.70;;
54929;SDS011;40833;53.238;6.576;2022-12-18T09:22:43;39.90;;;18.60;;
54929;SDS011;40833;53.238;6.576;2022-12-18T09:25:09;44.20;;;18.93;;
54929;SDS011;40833;53.238;6.576;2022-12-18T09:27:35;37.97;;;18.80;;
54929;SDS011;40833;53.238;6.576;2022-12-18T09:30:00;39.10;;;18.20;;
54929;SDS011;40833;53.238;6.576;2022-12-18T09:32:26;36.77;;;18.70;;
54929;SDS011;40833;53.238;6.576;2022-12-18T09:34:52;40.63;;;18.73;;
54929;SDS011;40833;53.238;6.576;2022-12-18T09:37:18;40.23;;;18.60;;
54929;SDS011;40833;53.238;6.576;2022-12-18T09:39:43;35.63;;;17.90;;
54929;SDS011;40833;53.238;6.576;2022-12-18T09:42:14;35.73;;;17.50;;
54929;SDS011;40833;53.238;6.576;2022-12-18T09:44:48;37.33;;;17.93;;
54929;SDS011;40833;53.238;6.576;2022-12-18T09:47:25;37.13;;;17.70;;
54929;SDS011;40833;53.238;6.576;2022-12-18T09:50:01;33.23;;;17.57;;
54929;SDS011;40833;53.238;6.576;2022-12-18T09:52:37;38.17;;;17.87;;
54929;SDS011;40833;53.238;6.576;2022-12-18T09:57:55;28.00;;;15.17;;
54929;SDS011;40833;53.238;6.576;2022-12-18T10:00:40;37.83;;;16.03;;
54929;SDS011;40833;53.238;6.576;2022-12-18T10:03:11;36.80;;;16.37;;
54929;SDS011;40833;53.238;6.576;2022-12-18T10:08:45;31.23;;;15.60;;
54929;SDS011;40833;53.238;6.576;2022-12-18T10:11:30;28.93;;;14.47;;
54929;SDS011;40833;53.238;6.576;2022-12-18T10:17:07;25.97;;;13.80;;
54929;SDS011;40833;53.238;6.576;2022-12-18T10:19:50;28.10;;;13.53;;
54929;SDS011;40833;53.238;6.576;2022-12-18T10:27:54;25.83;;;12.70;;
54929;SDS011;40833;53.238;6.576;2022-12-18T10:30:25;25.90;;;13.27;;
54929;SDS011;40833;53.238;6.576;2022-12-18T10:32:51;24.73;;;12.40;;
54929;SDS011;40833;53.238;6.576;2022-12-18T10:35:19;24.17;;;12.23;;
54929;SDS011;40833;53.238;6.576;2022-12-18T10:40:50;25.70;;;12.33;;
54929;SDS011;40833;53.238;6.576;2022-12-18T10:43:25;26.07;;;13.43;;
54929;SDS011;40833;53.238;6.576;2022-12-18T10:51:05;23.67;;;11.47;;
54929;SDS011;40833;53.238;6.576;2022-12-18T10:53:33;19.53;;;10.60;;
54929;SDS011;40833;53.238;6.576;2022-12-18T10:56:02;18.20;;;10.50;;
54929;SDS011;40833;53.238;6.576;2022-12-18T10:58:37;17.13;;;11.40;;
54929;SDS011;40833;53.238;6.576;2022-12-18T11:06:08;19.87;;;11.93;;
54929;SDS011;40833;53.238;6.576;2022-12-18T11:08:34;20.87;;;10.20;;
54929;SDS011;40833;53.238;6.576;2022-12-18T11:11:00;16.70;;;8.70;;
54929;SDS011;40833;53.238;6.576;2022-12-18T11:13:28;14.83;;;9.40;;
54929;SDS011;40833;53.238;6.576;2022-12-18T11:15:55;14.40;;;8.60;;
54929;SDS011;40833;53.238;6.576;2022-12-18T11:18:25;14.67;;;8.27;;
54929;SDS011;40833;53.238;6.576;2022-12-18T11:20:52;17.20;;;8.90;;
54929;SDS011;40833;53.238;6.576;2022-12-18T11:23:32;15.60;;;9.70;;
54929;SDS011;40833;53.238;6.576;2022-12-18T11:26:01;17.93;;;9.57;;
54929;SDS011;40833;53.238;6.576;2022-12-18T11:28:33;18.10;;;9.27;;
54929;SDS011;40833;53.238;6.576;2022-12-18T11:33:42;12.73;;;7.47;;
54929;SDS011;40833;53.238;6.576;2022-12-18T11:36:34;12.40;;;7.13;;
54929;SDS011;40833;53.238;6.576;2022-12-18T11:39:12;16.23;;;7.87;;
54929;SDS011;40833;53.238;6.576;2022-12-18T11:41:50;14.07;;;7.27;;
54929;SDS011;40833;53.238;6.576;2022-12-18T11:44:42;11.47;;;7.13;;
54929;SDS011;40833;53.238;6.576;2022-12-18T11:49:51;10.67;;;6.17;;
54929;SDS011;40833;53.238;6.576;2022-12-18T11:52:27;10.70;;;6.97;;
54929;SDS011;40833;53.238;6.576;2022-12-18T11:55:04;14.63;;;6.63;;
54929;SDS011;40833;53.238;6.576;2022-12-18T12:00:20;13.73;;;6.97;;
54929;SDS011;40833;53.238;6.576;2022-12-18T12:20:10;16.77;;;5.73;;
54929;SDS011;40833;53.238;6.576;2022-12-18T12:22:58;11.10;;;6.63;;
54929;SDS011;40833;53.238;6.576;2022-12-18T12:36:42;14.53;;;8.10;;
54929;SDS011;40833;53.238;6.576;2022-12-18T12:39:08;9.33;;;6.53;;
54929;SDS011;40833;53.238;6.576;2022-12-18T12:41:38;10.67;;;6.60;;
54929;SDS011;40833;53.238;6.576;2022-12-18T12:44:32;11.40;;;7.13;;
54929;SDS011;40833;53.238;6.576;2022-12-18T12:47:07;15.07;;;7.97;;
54929;SDS011;40833;53.238;6.576;2022-12-18T12:49:39;12.67;;;6.83;;
54929;SDS011;40833;53.238;6.576;2022-12-18T12:52:10;10.97;;;6.47;;
54929;SDS011;40833;53.238;6.576;2022-12-18T12:54:47;11.35;;;6.53;;
54929;SDS011;40833;53.238;6.576;2022-12-18T13:02:34;9.98;;;5.30;;
54929;SDS011;40833;53.238;6.576;2022-12-18T13:05:14;14.87;;;6.57;;
54929;SDS011;40833;53.238;6.576;2022-12-18T13:07:59;9.17;;;5.40;;
54929;SDS011;40833;53.238;6.576;2022-12-18T13:10:32;8.30;;;4.97;;
54929;SDS011;40833;53.238;6.576;2022-12-18T13:13:01;11.10;;;6.10;;
54929;SDS011;40833;53.238;6.576;2022-12-18T13:20:38;9.93;;;6.17;;
54929;SDS011;40833;53.238;6.576;2022-12-18T13:45:47;7.73;;;5.37;;
54929;SDS011;40833;53.238;6.576;2022-12-18T13:48:24;8.43;;;5.40;;
54929;SDS011;40833;53.238;6.576;2022-12-18T13:51:04;7.13;;;4.93;;
54929;SDS011;40833;53.238;6.576;2022-12-18T13:53:37;9.20;;;5.30;;
54929;SDS011;40833;53.238;6.576;2022-12-18T13:56:08;9.07;;;5.27;;
54929;SDS011;40833;53.238;6.576;2022-12-18T13:58:34;12.23;;;5.67;;
54929;SDS011;40833;53.238;6.576;2022-12-18T14:00:59;9.83;;;5.53;;
54929;SDS011;40833;53.238;6.576;2022-12-18T14:03:27;9.47;;;5.30;;
54929;SDS011;40833;53.238;6.576;2022-12-18T14:06:05;10.00;;;5.40;;
54929;SDS011;40833;53.238;6.576;2022-12-18T14:08:43;7.53;;;5.50;;
54929;SDS011;40833;53.238;6.576;2022-12-18T14:11:20;11.40;;;5.40;;
54929;SDS011;40833;53.238;6.576;2022-12-18T14:13:47;9.40;;;5.20;;
54929;SDS011;40833;53.238;6.576;2022-12-18T14:16:14;8.50;;;5.53;;
54929;SDS011;40833;53.238;6.576;2022-12-18T14:18:43;9.17;;;5.23;;
54929;SDS011;40833;53.238;6.576;2022-12-18T14:21:19;9.30;;;5.50;;
54929;SDS011;40833;53.238;6.576;2022-12-18T14:24:17;9.73;;;5.37;;
54929;SDS011;40833;53.238;6.576;2022-12-18T14:26:44;11.47;;;5.53;;
54929;SDS011;40833;53.238;6.576;2022-12-18T14:29:21;10.30;;;5.77;;
54929;SDS011;40833;53.238;6.576;2022-12-18T14:32:07;12.50;;;5.80;;
54929;SDS011;40833;53.238;6.576;2022-12-18T14:34:33;10.85;;;6.05;;
54929;SDS011;40833;53.238;6.576;2022-12-18T14:36:58;14.50;;;6.53;;
54929;SDS011;40833;53.238;6.576;2022-12-18T14:39:24;10.00;;;6.17;;
54929;SDS011;40833;53.238;6.576;2022-12-18T14:41:50;15.27;;;6.30;;
54929;SDS011;40833;53.238;6.576;2022-12-18T14:44:16;13.43;;;5.77;;
54929;SDS011;40833;53.238;6.576;2022-12-18T14:46:43;11.67;;;5.97;;
54929;SDS011;40833;53.238;6.576;2022-12-18T14:52:01;10.90;;;5.60;;
54929;SDS011;40833;53.238;6.576;2022-12-18T14:54:31;9.73;;;5.70;;
54929;SDS011;40833;53.238;6.576;2022-12-18T14:59:24;11.33;;;5.67;;
54929;SDS011;40833;53.238;6.576;2022-12-18T15:12:47;10.33;;;5.73;;
54929;SDS011;40833;53.238;6.576;2022-12-18T15:15:58;11.37;;;6.03;;
54929;SDS011;40833;53.238;6.576;2022-12-18T15:20:52;11.67;;;7.30;;
54929;SDS011;40833;53.238;6.576;2022-12-18T15:25:48;11.47;;;7.57;;
54929;SDS011;40833;53.238;6.576;2022-12-18T15:33:35;14.13;;;8.27;;
54929;SDS011;40833;53.238;6.576;2022-12-18T15:36:03;11.90;;;7.90;;
54929;SDS011;40833;53.238;6.576;2022-12-18T15:38:39;18.33;;;9.37;;
54929;SDS011;40833;53.238;6.576;2022-12-18T15:41:05;16.13;;;9.10;;
54929;SDS011;40833;53.238;6.576;2022-12-18T15:43:37;12.40;;;8.47;;
54929;SDS011;40833;53.238;6.576;2022-12-18T15:46:07;12.10;;;8.23;;
54929;SDS011;40833;53.238;6.576;2022-12-18T15:48:39;16.40;;;8.70;;
54929;SDS011;40833;53.238;6.576;2022-12-18T15:51:11;16.47;;;8.30;;
54929;SDS011;40833;53.238;6.576;2022-12-18T15:53:43;16.20;;;8.67;;
54929;SDS011;40833;53.238;6.576;2022-12-18T15:56:11;16.57;;;8.73;;
54929;SDS011;40833;53.238;6.576;2022-12-18T15:58:56;15.00;;;8.97;;
54929;SDS011;40833;53.238;6.576;2022-12-18T16:01:25;15.60;;;9.07;;
54929;SDS011;40833;53.238;6.576;2022-12-18T16:03:53;17.13;;;8.50;;
54929;SDS011;40833;53.238;6.576;2022-12-18T16:06:19;17.13;;;8.93;;
54929;SDS011;40833;53.238;6.576;2022-12-18T16:08:45;18.27;;;11.07;;
54929;SDS011;40833;53.238;6.576;2022-12-18T16:11:30;19.53;;;9.97;;
54929;SDS011;40833;53.238;6.576;2022-12-18T16:14:24;14.03;;;8.23;;
54929;SDS011;40833;53.238;6.576;2022-12-18T16:17:02;16.53;;;8.60;;
54929;SDS011;40833;53.238;6.576;2022-12-18T16:19:30;14.57;;;8.37;;
54929;SDS011;40833;53.238;6.576;2022-12-18T16:21:57;16.23;;;9.00;;
54929;SDS011;40833;53.238;6.576;2022-12-18T16:24:24;14.10;;;8.17;;
54929;SDS011;40833;53.238;6.576;2022-12-18T16:26:52;14.40;;;8.87;;
54929;SDS011;40833;53.238;6.576;2022-12-18T16:29:18;15.13;;;9.13;;
54929;SDS011;40833;53.238;6.576;2022-12-18T16:31:49;13.50;;;7.73;;
54929;SDS011;40833;53.238;6.576;2022-12-18T16:39:14;11.57;;;7.37;;
54929;SDS011;40833;53.238;6.576;2022-12-18T16:41:41;13.17;;;8.07;;
54929;SDS011;40833;53.238;6.576;2022-12-18T16:44:07;13.77;;;8.57;;
54929;SDS011;40833;53.238;6.576;2022-12-18T16:46:32;16.10;;;8.60;;
54929;SDS011;40833;53.238;6.576;2022-12-18T16:48:58;14.17;;;8.33;;
54929;SDS011;40833;53.238;6.576;2022-12-18T16:51:25;13.83;;;7.87;;
54929;SDS011;40833;53.238;6.576;2022-12-18T16:53:52;17.07;;;9.30;;
54929;SDS011;40833;53.238;6.576;2022-12-18T16:56:18;14.43;;;8.40;;
54929;SDS011;40833;53.238;6.576;2022-12-18T16:58:54;15.13;;;8.10;;
54929;SDS011;40833;53.238;6.576;2022-12-18T17:01:21;14.10;;;8.50;;
54929;SDS011;40833;53.238;6.576;2022-12-18T17:03:55;15.30;;;8.10;;
54929;SDS011;40833;53.238;6.576;2022-12-18T17:06:23;13.13;;;7.63;;
54929;SDS011;40833;53.238;6.576;2022-12-18T17:08:56;14.83;;;8.33;;
54929;SDS011;40833;53.238;6.576;2022-12-18T17:13:49;15.23;;;8.30;;
54929;SDS011;40833;53.238;6.576;2022-12-18T17:16:15;12.67;;;8.17;;
54929;SDS011;40833;53.238;6.576;2022-12-18T17:18:44;14.30;;;7.83;;
54929;SDS011;40833;53.238;6.576;2022-12-18T17:21:10;14.80;;;7.63;;
54929;SDS011;40833;53.238;6.576;2022-12-18T17:23:37;12.70;;;7.90;;
54929;SDS011;40833;53.238;6.576;2022-12-18T17:26:03;14.27;;;8.40;;
54929;SDS011;40833;53.238;6.576;2022-12-18T17:28:31;15.50;;;8.03;;